Anacortes, Washington
Current Conditions -  °F | °C
As of 2:56 AM on Saturday 25 Oct 2014 (Local Time) from KNUW Reporting Station
Light Rain Light Rain  
Wind Chill: 52°   Ceiling: 5500
Heat Index: 52°   Visibility: 10mi
Dew Point: 46°   Wind: 10mph
Humidity: 80%   Direction: 30°NNE
Pressure: 29.65"   Gusts: NA
Location:  48.51°N, 122.61°W
Report Text: KNUW 250956Z 03009KT 10SM -RA SCT025 BKN055 OVC080 11/08 A2965 RMK AO2 PRESFR SLP043 P0000 T01110078 $
Loading
Personal Weather Stations






























Interactive Weather Map New forecast layout! Learn more

10-Day Weather Forecast

Advertisements
Track Severe Weather on mobile